createdAt,value
2022-11-26T08:06:59.543Z,6.63
2022-11-26T08:08:00.968Z,6.10
2022-11-26T08:09:04.244Z,6.07
2022-11-26T08:10:06.285Z,4.45
2022-11-26T08:11:19.412Z,5.40
2022-11-26T08:12:20.922Z,5.55
2022-11-26T08:13:22.349Z,4.57
2022-11-26T08:14:23.696Z,8.63
2022-11-26T08:15:25.445Z,5.07
2022-11-26T08:16:29.063Z,7.55
2022-11-26T08:17:31.238Z,10.68
2022-11-26T08:18:32.590Z,6.68
2022-11-26T08:19:33.953Z,4.97
2022-11-26T08:20:35.295Z,4.32
2022-11-26T08:21:39.583Z,6.75
2022-11-26T08:22:41.263Z,6.13
2022-11-26T08:23:42.695Z,13.07
2022-11-26T08:24:44.122Z,10.70
2022-11-26T08:26:14.243Z,10.38
2022-11-26T08:27:06.907Z,6.28
2022-11-26T08:28:08.316Z,6.78
2022-11-26T08:29:09.960Z,7.45
2022-11-26T08:30:11.800Z,4.88
2022-11-26T08:31:16.191Z,18.08
2022-11-26T08:32:17.765Z,7.75
2022-11-26T08:33:19.214Z,9.60
2022-11-26T08:34:20.717Z,3.85
2022-11-26T08:35:34.286Z,4.32
2022-11-26T08:36:44.779Z,6.03
2022-11-26T08:37:46.179Z,3.13
2022-11-26T08:38:47.558Z,4.95
2022-11-26T08:39:49.080Z,5.35
2022-11-26T08:40:50.995Z,8.38
2022-11-26T08:41:53.289Z,6.22
2022-11-26T08:42:55.046Z,4.32
2022-11-26T08:44:11.674Z,6.72
2022-11-26T08:45:13.268Z,11.00
2022-11-26T08:46:14.805Z,9.63
2022-11-26T08:47:16.399Z,7.38
2022-11-26T08:48:17.832Z,4.95
2022-11-26T08:49:19.281Z,6.90
2022-11-26T08:50:20.810Z,4.95
2022-11-26T08:51:22.358Z,9.15
2022-11-26T08:52:24.053Z,6.32
2022-11-26T08:53:26.875Z,8.20
2022-11-26T08:54:28.400Z,7.43
2022-11-26T08:55:53.323Z,14.73
2022-11-26T08:56:51.784Z,9.00
2022-11-26T08:57:53.125Z,8.23
2022-11-26T08:58:55.005Z,7.63
2022-11-26T08:59:56.632Z,8.27
2022-11-26T09:01:02.576Z,7.28
2022-11-26T09:02:05.440Z,8.25
2022-11-26T09:03:07.742Z,7.40
2022-11-26T09:04:09.252Z,7.18
2022-11-26T09:05:10.634Z,7.90
2022-11-26T09:06:12.045Z,11.25
2022-11-26T09:07:13.968Z,10.70
2022-11-26T09:08:15.429Z,9.40
2022-11-26T09:09:17.448Z,11.52
2022-11-26T09:10:19.558Z,15.32
2022-11-26T09:11:21.188Z,9.52
2022-11-26T09:12:22.619Z,6.68
2022-11-26T09:13:24.087Z,10.40
2022-11-26T09:14:31.791Z,11.63
2022-11-26T09:15:33.244Z,10.60
2022-11-26T09:16:34.853Z,6.07
2022-11-26T09:17:36.231Z,7.78
2022-11-26T09:18:37.808Z,8.85
2022-11-26T09:19:39.428Z,4.47
2022-11-26T09:20:40.902Z,19.75
2022-11-26T09:21:42.820Z,7.88
2022-11-26T09:22:44.291Z,33.22
2022-11-26T09:23:49.089Z,11.10
2022-11-26T09:24:50.452Z,8.57
2022-11-26T09:25:51.856Z,9.27
2022-11-26T09:26:53.763Z,6.68
2022-11-26T09:27:55.315Z,9.10
2022-11-26T09:28:56.917Z,6.50
2022-11-26T09:29:58.640Z,10.45
2022-11-26T09:31:01.466Z,12.38
2022-11-26T09:33:25.801Z,8.15
2022-11-26T09:34:30.800Z,13.02
2022-11-26T09:35:32.314Z,6.57
2022-11-26T09:36:33.708Z,7.72
2022-11-26T09:37:35.287Z,10.20
2022-11-26T09:38:37.515Z,7.93
2022-11-26T09:39:39.024Z,12.15
2022-11-26T09:40:50.632Z,10.35
2022-11-26T09:42:07.205Z,12.45
2022-11-26T09:43:29.759Z,11.05
2022-11-26T09:44:50.260Z,10.65
2022-11-26T09:45:59.248Z,10.10
2022-11-26T09:47:13.813Z,8.50
2022-11-26T09:48:22.432Z,11.13
2022-11-26T09:49:25.247Z,9.00
2022-11-26T09:50:33.344Z,14.30
2022-11-26T09:51:35.276Z,9.18
2022-11-26T09:53:03.417Z,7.85
2022-11-26T09:54:05.421Z,14.60
2022-11-26T09:55:18.557Z,6.97
2022-11-26T09:56:27.531Z,10.70
2022-11-26T09:57:35.436Z,5.85
2022-11-26T09:58:40.060Z,14.25
2022-11-26T09:59:42.066Z,8.70
2022-11-26T10:00:49.844Z,10.13
2022-11-26T10:01:51.261Z,14.40
2022-11-26T10:02:54.544Z,11.25
2022-11-26T10:03:56.416Z,10.57
2022-11-26T10:04:57.863Z,12.50
2022-11-26T10:06:09.698Z,11.43
2022-11-26T10:07:31.709Z,13.35
2022-11-26T10:08:51.120Z,6.00
2022-11-26T10:10:17.234Z,7.53
2022-11-26T10:11:52.419Z,10.40
2022-11-26T10:13:21.539Z,8.75
2022-11-26T10:14:56.048Z,6.47
2022-11-26T10:16:27.903Z,11.73
2022-11-26T10:17:57.929Z,24.83
2022-11-26T10:19:27.084Z,24.42
2022-11-26T10:20:50.753Z,11.32
2022-11-26T10:22:00.263Z,12.65
2022-11-26T10:23:31.830Z,10.75
2022-11-26T10:24:41.995Z,9.85
2022-11-26T10:25:51.113Z,9.27
2022-11-26T10:26:53.560Z,10.75
2022-11-26T10:27:59.332Z,18.63
2022-11-26T10:29:19.929Z,14.23
2022-11-26T10:30:23.094Z,19.23
2022-11-26T10:31:31.332Z,12.52
2022-11-26T10:32:38.678Z,10.85
2022-11-26T10:33:57.192Z,13.30
2022-11-26T10:34:59.081Z,16.90
2022-11-26T10:36:00.920Z,5.93
2022-11-26T10:37:02.365Z,9.13
2022-11-26T10:38:04.296Z,11.57
2022-11-26T10:39:11.851Z,13.05
2022-11-26T10:40:19.425Z,7.90
2022-11-26T10:41:21.803Z,11.50
2022-11-26T10:42:23.844Z,10.00
2022-11-26T10:43:25.328Z,8.57
2022-11-26T10:44:41.583Z,14.73
2022-11-26T10:45:47.734Z,10.40
2022-11-26T10:46:49.274Z,19.40
2022-11-26T10:47:51.235Z,7.70
2022-11-26T10:48:52.676Z,8.45
2022-11-26T10:50:45.600Z,10.43
2022-11-26T10:51:37.684Z,8.85
2022-11-26T10:52:39.839Z,15.00
2022-11-26T10:53:57.934Z,6.57
2022-11-26T10:55:29.694Z,9.80
2022-11-26T10:56:47.730Z,20.70
2022-11-26T10:57:53.364Z,10.02
2022-11-26T10:59:01.635Z,13.68
2022-11-26T11:00:04.945Z,7.55
2022-11-26T11:01:10.459Z,9.23
2022-11-26T11:02:39.030Z,12.75
2022-11-26T11:04:25.251Z,10.90
2022-11-26T11:05:27.939Z,8.57
2022-11-26T11:06:46.663Z,13.82
2022-11-26T11:07:48.131Z,11.52
2022-11-26T11:08:51.763Z,16.77
2022-11-26T11:10:13.088Z,12.40
2022-11-26T11:11:29.521Z,16.38
2022-11-26T11:12:31.136Z,9.82
2022-11-26T11:13:43.823Z,8.00
2022-11-26T11:14:46.624Z,9.18
2022-11-26T11:15:59.648Z,7.47
2022-11-26T11:17:01.223Z,16.95
2022-11-26T11:18:17.306Z,10.55
2022-11-26T11:19:25.338Z,10.55
2022-11-26T11:20:42.301Z,10.80
2022-11-26T11:21:48.029Z,9.10
2022-11-26T11:22:57.663Z,10.27
2022-11-26T11:24:15.391Z,13.57
2022-11-26T11:25:23.616Z,8.13
2022-11-26T11:26:25.815Z,9.30
2022-11-26T11:27:42.069Z,8.23
2022-11-26T11:28:49.213Z,11.20
2022-11-26T11:29:51.975Z,9.75
2022-11-26T11:31:08.171Z,9.13
2022-11-26T11:32:34.363Z,6.38
2022-11-26T11:33:35.847Z,6.43
2022-11-26T11:34:39.841Z,10.85
2022-11-26T11:35:41.468Z,10.00
2022-11-26T11:36:42.891Z,15.85
2022-11-26T11:37:49.206Z,10.18
2022-11-26T11:38:58.427Z,10.43
2022-11-26T11:40:06.294Z,11.07
2022-11-26T11:41:22.155Z,9.15
2022-11-26T11:42:29.848Z,12.45
2022-11-26T11:43:36.775Z,14.55
2022-11-26T11:44:44.679Z,12.98
2022-11-26T11:46:19.379Z,9.75
2022-11-26T11:47:40.723Z,12.15
2022-11-26T11:49:00.861Z,8.05
2022-11-26T11:50:23.723Z,7.47
2022-11-26T11:51:48.775Z,18.80
2022-11-26T11:52:55.767Z,7.95
2022-11-26T11:54:23.720Z,6.97
2022-11-26T11:56:03.857Z,14.50
2022-11-26T11:57:30.047Z,16.38
2022-11-26T11:59:02.914Z,9.00
2022-11-26T12:00:20.044Z,9.27
2022-11-26T12:01:43.715Z,11.55
2022-11-26T12:03:10.755Z,10.63
2022-11-26T12:04:45.034Z,11.18
2022-11-26T12:06:04.027Z,10.40
2022-11-26T12:07:34.403Z,8.70
2022-11-26T12:08:44.728Z,8.98
2022-11-26T12:10:05.178Z,16.40
2022-11-26T12:11:09.454Z,12.93
2022-11-26T12:12:33.306Z,11.82
2022-11-26T12:13:46.438Z,8.48
2022-11-26T12:14:52.750Z,11.75
2022-11-26T12:16:01.928Z,10.25
2022-11-26T12:17:11.894Z,10.57
2022-11-26T12:18:31.526Z,18.52
2022-11-26T12:19:39.326Z,5.90
2022-11-26T12:20:45.206Z,16.33
2022-11-26T12:22:04.239Z,12.43
2022-11-26T12:23:27.325Z,10.35
2022-11-26T12:24:46.041Z,13.05
2022-11-26T12:25:52.079Z,5.25
2022-11-26T12:27:02.480Z,40.60
2022-11-26T12:28:15.271Z,14.88
2022-11-26T12:29:35.367Z,48.38
2022-11-26T12:30:50.553Z,20.80
2022-11-26T12:31:54.870Z,11.35
2022-11-26T12:33:10.124Z,9.60
2022-11-26T12:34:42.940Z,9.73
2022-11-26T12:35:52.678Z,11.00
2022-11-26T12:37:00.762Z,23.52
2022-11-26T12:38:07.858Z,9.45
2022-11-26T12:39:20.195Z,9.68
2022-11-26T12:40:34.310Z,13.15
2022-11-26T12:41:47.385Z,6.32
2022-11-26T12:43:04.793Z,9.15
2022-11-26T12:44:16.310Z,16.80
2022-11-26T12:45:31.770Z,13.38
2022-11-26T12:46:42.730Z,13.82
2022-11-26T12:47:55.435Z,15.50
2022-11-26T12:49:20.415Z,6.70
2022-11-26T12:50:38.262Z,12.15
2022-11-26T12:52:11.724Z,11.57
2022-11-26T12:53:36.265Z,8.38
2022-11-26T12:54:54.032Z,13.93
2022-11-26T12:56:17.675Z,13.35
2022-11-26T12:57:34.106Z,8.00
2022-11-26T12:58:57.083Z,20.10
2022-11-26T13:00:11.165Z,7.32
2022-11-26T13:01:12.887Z,6.63
2022-11-26T13:02:29.363Z,7.65
2022-11-26T13:03:33.246Z,16.73
2022-11-26T13:04:49.326Z,12.05
2022-11-26T13:06:28.044Z,10.07
2022-11-26T13:07:49.069Z,6.38
2022-11-26T13:09:00.727Z,11.00
2022-11-26T13:10:14.060Z,8.07
2022-11-26T13:11:18.269Z,10.00
2022-11-26T13:12:37.736Z,10.75
2022-11-26T13:13:58.409Z,7.70
2022-11-26T13:15:17.920Z,10.40
2022-11-26T13:16:25.565Z,6.45
2022-11-26T13:17:40.893Z,18.38
2022-11-26T13:18:50.594Z,11.95
2022-11-26T13:20:00.762Z,8.90
2022-11-26T13:21:22.691Z,110.15
2022-11-26T13:22:45.710Z,79.93
2022-11-26T13:24:24.165Z,57.47
2022-11-26T13:25:39.020Z,9.43
2022-11-26T13:26:56.487Z,12.18
2022-11-26T13:28:04.179Z,12.02
2022-11-26T13:29:24.601Z,16.85
2022-11-26T13:30:57.116Z,10.70
2022-11-26T13:32:18.132Z,16.15
2022-11-26T13:33:41.034Z,15.02
2022-11-26T13:35:15.261Z,14.82
2022-11-26T13:36:19.243Z,22.05
2022-11-26T13:37:39.296Z,13.63
2022-11-26T13:39:02.242Z,9.85
2022-11-26T13:40:12.374Z,12.82
2022-11-26T13:41:32.355Z,12.52
2022-11-26T13:42:54.240Z,14.43
2022-11-26T13:44:43.352Z,12.73
2022-11-26T13:45:59.209Z,12.60
2022-11-26T13:47:10.740Z,10.60
2022-11-26T13:48:30.969Z,10.27
2022-11-26T13:49:42.036Z,11.95
2022-11-26T13:51:03.904Z,16.95
2022-11-26T13:52:14.144Z,29.17
2022-11-26T13:53:31.979Z,18.50
2022-11-26T13:54:39.838Z,12.02
2022-11-26T13:55:54.597Z,8.65
2022-11-26T13:57:07.590Z,14.68
2022-11-26T13:58:18.249Z,13.15
2022-11-26T13:59:28.261Z,11.05
2022-11-26T14:00:34.875Z,11.27
2022-11-26T14:01:42.360Z,9.85
2022-11-26T14:02:44.721Z,14.32
2022-11-26T14:03:48.520Z,10.50
2022-11-26T14:04:49.833Z,13.25
2022-11-26T14:05:51.155Z,14.93
2022-11-26T14:07:04.562Z,15.20
2022-11-26T14:08:37.723Z,13.18
2022-11-26T14:09:42.266Z,8.77
2022-11-26T14:10:43.812Z,12.57
2022-11-26T14:11:45.190Z,8.15
2022-11-26T14:13:02.294Z,9.68
2022-11-26T14:14:25.533Z,18.48
2022-11-26T14:15:41.875Z,12.52
2022-11-26T14:17:01.298Z,18.67
2022-11-26T14:18:02.765Z,14.45
2022-11-26T14:19:04.251Z,83.68
2022-11-26T14:20:06.429Z,52.40
2022-11-26T14:21:07.778Z,68.57
2022-11-26T14:22:33.376Z,16.60
2022-11-26T14:23:40.543Z,16.98
2022-11-26T14:24:51.546Z,14.70
2022-11-26T14:25:53.184Z,14.98
2022-11-26T14:26:54.812Z,13.23
2022-11-26T14:27:57.114Z,13.35
2022-11-26T14:29:07.526Z,9.13
2022-11-26T14:30:09.273Z,9.75
2022-11-26T14:31:25.481Z,18.58
2022-11-26T14:32:32.623Z,13.88
2022-11-26T14:33:34.679Z,16.63
2022-11-26T14:34:42.416Z,13.82
2022-11-26T14:35:58.477Z,12.68
2022-11-26T14:37:01.802Z,15.77
2022-11-26T14:38:27.172Z,14.90
2022-11-26T14:39:29.411Z,7.45
2022-11-26T14:40:34.153Z,8.73
2022-11-26T14:41:56.046Z,11.35
2022-11-26T14:43:07.213Z,14.27
2022-11-26T14:44:16.423Z,19.65
2022-11-26T14:45:19.171Z,11.48
2022-11-26T14:46:20.918Z,14.45
2022-11-26T14:47:25.402Z,12.07
2022-11-26T14:48:28.903Z,20.05
2022-11-26T14:49:36.366Z,20.05
2022-11-26T14:50:45.892Z,35.90
2022-11-26T14:51:53.452Z,45.17
2022-11-26T14:53:06.988Z,38.05
2022-11-26T14:54:15.814Z,41.13
2022-11-26T14:55:28.788Z,30.90
2022-11-26T14:56:30.925Z,40.92
2022-11-26T14:57:46.122Z,43.22
2022-11-26T14:58:54.744Z,29.15
2022-11-26T15:00:20.977Z,32.83
2022-11-26T15:01:25.256Z,30.58
2022-11-26T15:02:29.075Z,31.75
2022-11-26T15:03:30.571Z,23.60
2022-11-26T15:04:42.449Z,18.80
2022-11-26T15:05:45.329Z,22.20
2022-11-26T15:06:46.839Z,21.10
2022-11-26T15:08:07.639Z,19.63
2022-11-26T15:09:24.384Z,20.85
2022-11-26T15:10:29.413Z,18.30
2022-11-26T15:11:30.928Z,23.60
2022-11-26T15:12:35.195Z,20.00
2022-11-26T15:13:40.830Z,13.75
2022-11-26T15:14:54.518Z,13.60
2022-11-26T15:15:59.118Z,21.80
2022-11-26T15:17:02.176Z,12.65
2022-11-26T15:18:06.512Z,13.13
2022-11-26T15:19:17.134Z,16.63
2022-11-26T15:20:19.122Z,14.23
2022-11-26T15:21:25.178Z,13.50
2022-11-26T15:22:39.083Z,17.27
2022-11-26T15:23:40.630Z,16.73
2022-11-26T15:24:42.362Z,10.10
2022-11-26T15:25:50.039Z,17.83
2022-11-26T15:26:51.508Z,20.63
2022-11-26T15:27:59.037Z,12.23
2022-11-26T15:29:01.096Z,20.65
2022-11-26T15:30:18.427Z,19.70
2022-11-26T15:31:20.249Z,15.85
2022-11-26T15:32:30.432Z,17.00
2022-11-26T15:33:34.378Z,19.50
2022-11-26T15:34:36.449Z,19.98
2022-11-26T15:35:43.776Z,16.83
2022-11-26T15:36:45.207Z,19.38
2022-11-26T15:37:49.983Z,21.05
2022-11-26T15:39:03.497Z,15.07
2022-11-26T15:40:08.975Z,9.18
2022-11-26T15:41:18.509Z,23.35
2022-11-26T15:42:32.193Z,19.92
2022-11-26T15:43:35.975Z,19.02
2022-11-26T15:44:42.794Z,24.67
2022-11-26T15:45:44.630Z,14.48
2022-11-26T15:46:50.206Z,14.00
2022-11-26T15:47:54.424Z,23.50
2022-11-26T15:49:03.666Z,12.85
2022-11-26T15:50:05.918Z,24.60
2022-11-26T15:51:09.851Z,16.48
2022-11-26T15:52:14.586Z,16.10
2022-11-26T15:53:22.399Z,16.27
2022-11-26T15:54:38.351Z,16.70
2022-11-26T15:55:49.490Z,14.80
2022-11-26T15:57:28.195Z,16.13
2022-11-26T15:58:40.433Z,16.95
2022-11-26T15:59:47.782Z,15.48
2022-11-26T16:00:52.869Z,14.20
2022-11-26T16:01:54.859Z,18.70
2022-11-26T16:02:56.471Z,23.00
2022-11-26T16:04:05.990Z,12.23
2022-11-26T16:05:23.762Z,10.00
2022-11-26T16:06:35.451Z,11.57
2022-11-26T16:07:37.330Z,23.48
2022-11-26T16:08:42.971Z,12.40
2022-11-26T16:09:45.995Z,15.40
2022-11-26T16:10:58.638Z,12.45
2022-11-26T16:12:01.261Z,19.45
2022-11-26T16:13:09.474Z,18.08
2022-11-26T16:14:32.738Z,19.83
2022-11-26T16:15:35.735Z,20.48
2022-11-26T16:16:37.275Z,26.08
2022-11-26T16:17:39.094Z,15.57
2022-11-26T16:18:51.517Z,19.85
2022-11-26T16:19:59.108Z,17.67
2022-11-26T16:21:07.830Z,16.77
2022-11-26T16:22:21.685Z,20.75
2022-11-26T16:23:29.060Z,20.55
2022-11-26T16:24:38.651Z,13.65
2022-11-26T16:25:40.342Z,24.38
2022-11-26T16:27:24.300Z,26.73
2022-11-26T16:28:25.634Z,13.07
2022-11-26T16:29:28.654Z,9.65
2022-11-26T16:30:33.534Z,12.65
2022-11-26T16:31:35.013Z,13.25
2022-11-26T16:32:36.644Z,19.67
2022-11-26T16:33:38.277Z,12.57
2022-11-26T16:34:39.898Z,19.45
2022-11-26T16:35:46.147Z,15.55
2022-11-26T16:36:48.347Z,18.60
2022-11-26T16:37:49.705Z,21.92
2022-11-26T16:38:56.083Z,11.82
2022-11-26T16:40:04.239Z,18.92
2022-11-26T16:41:05.727Z,14.95
2022-11-26T16:42:18.549Z,19.65
2022-11-26T16:43:20.648Z,11.43
2022-11-26T16:44:25.042Z,14.10
2022-11-26T16:45:26.614Z,14.68
2022-11-26T16:46:28.185Z,16.23
2022-11-26T16:47:36.301Z,13.15
2022-11-26T16:48:39.173Z,19.77
2022-11-26T16:49:40.836Z,18.92
2022-11-26T16:50:42.253Z,19.85
2022-11-26T16:51:43.680Z,23.52
2022-11-26T16:52:45.814Z,15.98
2022-11-26T16:53:47.348Z,15.27
2022-11-26T16:54:49.453Z,14.32
2022-11-26T16:55:53.428Z,19.23
2022-11-26T16:56:56.214Z,17.25
2022-11-26T16:58:00.133Z,20.45
2022-11-26T16:59:05.964Z,16.58
2022-11-26T17:00:17.944Z,18.35
2022-11-26T17:01:19.637Z,22.92
2022-11-26T17:02:24.576Z,16.92
2022-11-26T17:03:28.013Z,19.15
2022-11-26T17:04:29.729Z,23.42
2022-11-26T17:05:31.100Z,16.58
2022-11-26T17:06:33.935Z,20.98
2022-11-26T17:07:42.822Z,21.63
2022-11-26T17:08:49.533Z,24.55
2022-11-26T17:09:54.917Z,22.80
2022-11-26T17:10:56.564Z,26.80
2022-11-26T17:11:57.958Z,17.42
2022-11-26T17:12:59.571Z,26.20
2022-11-26T17:14:00.987Z,28.05
2022-11-26T17:15:02.348Z,27.05
2022-11-26T17:16:04.349Z,21.83
2022-11-26T17:17:05.942Z,23.92
2022-11-26T17:18:22.487Z,25.17
2022-11-26T17:19:24.038Z,31.33
2022-11-26T17:20:25.508Z,29.02
2022-11-26T17:21:26.864Z,18.15
2022-11-26T17:22:28.557Z,19.85
2022-11-26T17:23:30.116Z,20.88
2022-11-26T17:24:31.789Z,38.85
2022-11-26T17:25:37.486Z,28.58
2022-11-26T17:26:39.080Z,19.45
2022-11-26T17:27:41.599Z,23.48
2022-11-26T17:28:43.096Z,24.70
2022-11-26T17:29:46.613Z,15.13
2022-11-26T17:30:51.185Z,19.88
2022-11-26T17:31:52.533Z,15.23
2022-11-26T17:32:54.130Z,31.25
2022-11-26T17:33:55.764Z,26.35
2022-11-26T17:34:57.166Z,26.48
2022-11-26T17:35:58.866Z,17.10
2022-11-26T17:37:00.357Z,28.75
2022-11-26T17:38:01.992Z,29.38
2022-11-26T17:39:03.585Z,19.60
2022-11-26T17:40:14.962Z,27.13
2022-11-26T17:41:16.728Z,15.75
2022-11-26T17:42:19.753Z,18.75
2022-11-26T17:43:21.139Z,25.45
2022-11-26T17:44:22.506Z,17.48
2022-11-26T17:45:23.926Z,18.55
2022-11-26T17:46:29.223Z,19.83
2022-11-26T17:47:30.742Z,30.58
2022-11-26T17:48:32.188Z,21.92
2022-11-26T17:49:33.577Z,30.13
2022-11-26T17:50:36.315Z,27.30
2022-11-26T17:51:37.986Z,23.17
2022-11-26T17:52:39.314Z,23.92
2022-11-26T17:53:41.898Z,25.88
2022-11-26T17:54:44.842Z,22.70
2022-11-26T17:55:48.172Z,16.25
2022-11-26T17:56:49.521Z,21.42
2022-11-26T17:57:51.269Z,22.35
2022-11-26T17:58:53.056Z,20.90
2022-11-26T17:59:54.661Z,26.42
2022-11-26T18:00:56.004Z,19.60
2022-11-26T18:01:57.672Z,19.55
2022-11-26T18:02:59.433Z,30.92
2022-11-26T18:04:00.883Z,26.30
2022-11-26T18:05:02.406Z,18.23
2022-11-26T18:06:03.934Z,24.40
2022-11-26T18:07:12.716Z,29.38
2022-11-26T18:08:14.240Z,28.00
2022-11-26T18:09:15.656Z,26.05
2022-11-26T18:10:18.955Z,20.08
2022-11-26T18:11:20.395Z,28.48
2022-11-26T18:12:28.974Z,19.60
2022-11-26T18:13:30.409Z,23.40
2022-11-26T18:14:35.513Z,25.50
2022-11-26T18:15:37.237Z,24.48
2022-11-26T18:16:39.032Z,29.38
2022-11-26T18:17:40.529Z,33.88
2022-11-26T18:18:41.932Z,28.38
2022-11-26T18:19:43.975Z,24.38
2022-11-26T18:20:45.425Z,31.13
2022-11-26T18:21:48.226Z,22.38
2022-11-26T18:22:54.683Z,28.90
2022-11-26T18:23:56.124Z,28.77
2022-11-26T18:24:58.236Z,21.27
2022-11-26T18:25:59.570Z,33.13
2022-11-26T18:27:01.215Z,24.10
2022-11-26T18:28:06.917Z,32.20
2022-11-26T18:29:08.805Z,29.17
2022-11-26T18:30:11.233Z,30.63
2022-11-26T18:31:13.008Z,32.65
2022-11-26T18:32:14.935Z,30.77
2022-11-26T18:33:16.550Z,35.13
2022-11-26T18:34:18.264Z,32.17
2022-11-26T18:35:19.715Z,38.20
2022-11-26T18:36:21.280Z,42.05
2022-11-26T18:37:22.618Z,39.25
2022-11-26T18:38:28.843Z,43.33
2022-11-26T18:39:30.411Z,34.25
2022-11-26T18:40:31.784Z,35.85
2022-11-26T18:41:33.840Z,30.23
2022-11-26T18:42:37.601Z,21.38
